sensor_id;sensor_type;location;lat;lon;timestamp;P1;durP1;ratioP1;P2;durP2;ratioP2
19312;SDS011;9791;50.820;4.406;2022-09-09T00:00:28;3.92;;;1.20;;
19312;SDS011;9791;50.820;4.406;2022-09-09T00:05:55;4.60;;;1.33;;
19312;SDS011;9791;50.820;4.406;2022-09-09T00:08:26;6.53;;;1.42;;
19312;SDS011;9791;50.820;4.406;2022-09-09T00:10:58;3.10;;;0.95;;
19312;SDS011;9791;50.820;4.406;2022-09-09T00:18:46;3.88;;;1.10;;
19312;SDS011;9791;50.820;4.406;2022-09-09T00:21:16;4.07;;;1.50;;
19312;SDS011;9791;50.820;4.406;2022-09-09T00:23:44;5.45;;;1.25;;
19312;SDS011;9791;50.820;4.406;2022-09-09T00:31:25;3.80;;;1.10;;
19312;SDS011;9791;50.820;4.406;2022-09-09T00:33:52;6.68;;;1.95;;
19312;SDS011;9791;50.820;4.406;2022-09-09T00:36:20;6.18;;;1.45;;
19312;SDS011;9791;50.820;4.406;2022-09-09T00:38:57;5.43;;;1.20;;
19312;SDS011;9791;50.820;4.406;2022-09-09T00:41:37;4.57;;;1.38;;
19312;SDS011;9791;50.820;4.406;2022-09-09T00:49:39;3.25;;;0.95;;
19312;SDS011;9791;50.820;4.406;2022-09-09T00:52:32;4.55;;;1.20;;
19312;SDS011;9791;50.820;4.406;2022-09-09T01:02:39;6.30;;;1.50;;
19312;SDS011;9791;50.820;4.406;2022-09-09T01:05:11;8.38;;;1.50;;
19312;SDS011;9791;50.820;4.406;2022-09-09T01:07:38;8.68;;;1.50;;
19312;SDS011;9791;50.820;4.406;2022-09-09T01:10:11;5.32;;;1.15;;
19312;SDS011;9791;50.820;4.406;2022-09-09T01:12:43;4.35;;;1.50;;
19312;SDS011;9791;50.820;4.406;2022-09-09T01:15:22;6.03;;;1.50;;
19312;SDS011;9791;50.820;4.406;2022-09-09T01:17:53;6.25;;;1.70;;
19312;SDS011;9791;50.820;4.406;2022-09-09T01:20:25;4.82;;;1.23;;
19312;SDS011;9791;50.820;4.406;2022-09-09T01:27:57;8.10;;;1.42;;
19312;SDS011;9791;50.820;4.406;2022-09-09T01:30:24;6.82;;;1.90;;
19312;SDS011;9791;50.820;4.406;2022-09-09T01:32:53;7.60;;;1.45;;
19312;SDS011;9791;50.820;4.406;2022-09-09T01:35:29;9.48;;;1.88;;
19312;SDS011;9791;50.820;4.406;2022-09-09T01:37:57;6.32;;;1.27;;
19312;SDS011;9791;50.820;4.406;2022-09-09T01:40:24;6.97;;;1.60;;
19312;SDS011;9791;50.820;4.406;2022-09-09T01:42:50;7.38;;;1.70;;
19312;SDS011;9791;50.820;4.406;2022-09-09T01:45:17;7.65;;;1.60;;
19312;SDS011;9791;50.820;4.406;2022-09-09T01:47:43;8.35;;;1.90;;
19312;SDS011;9791;50.820;4.406;2022-09-09T01:50:10;5.95;;;1.60;;
19312;SDS011;9791;50.820;4.406;2022-09-09T01:52:37;8.90;;;1.55;;
19312;SDS011;9791;50.820;4.406;2022-09-09T01:55:04;9.77;;;1.48;;
19312;SDS011;9791;50.820;4.406;2022-09-09T01:57:37;9.20;;;2.00;;
19312;SDS011;9791;50.820;4.406;2022-09-09T02:00:08;6.50;;;1.92;;
19312;SDS011;9791;50.820;4.406;2022-09-09T02:02:38;6.95;;;1.80;;
19312;SDS011;9791;50.820;4.406;2022-09-09T02:05:20;7.05;;;1.40;;
19312;SDS011;9791;50.820;4.406;2022-09-09T02:07:49;9.80;;;2.08;;
19312;SDS011;9791;50.820;4.406;2022-09-09T02:10:23;8.98;;;2.25;;
19312;SDS011;9791;50.820;4.406;2022-09-09T02:12:55;7.32;;;1.75;;
19312;SDS011;9791;50.820;4.406;2022-09-09T02:15:32;7.32;;;1.80;;
19312;SDS011;9791;50.820;4.406;2022-09-09T02:17:59;4.55;;;1.58;;
19312;SDS011;9791;50.820;4.406;2022-09-09T02:20:27;7.72;;;1.60;;
19312;SDS011;9791;50.820;4.406;2022-09-09T02:22:53;7.72;;;1.80;;
19312;SDS011;9791;50.820;4.406;2022-09-09T02:25:22;11.13;;;3.13;;
19312;SDS011;9791;50.820;4.406;2022-09-09T02:27:50;7.63;;;1.60;;
19312;SDS011;9791;50.820;4.406;2022-09-09T02:30:16;8.23;;;2.10;;
19312;SDS011;9791;50.820;4.406;2022-09-09T02:32:45;7.85;;;1.88;;
19312;SDS011;9791;50.820;4.406;2022-09-09T02:35:12;5.32;;;1.65;;
19312;SDS011;9791;50.820;4.406;2022-09-09T02:37:40;10.77;;;2.20;;
19312;SDS011;9791;50.820;4.406;2022-09-09T02:40:08;8.82;;;1.95;;
19312;SDS011;9791;50.820;4.406;2022-09-09T02:42:38;8.02;;;1.70;;
19312;SDS011;9791;50.820;4.406;2022-09-09T02:45:05;9.30;;;2.05;;
19312;SDS011;9791;50.820;4.406;2022-09-09T02:50:02;12.60;;;1.88;;
19312;SDS011;9791;50.820;4.406;2022-09-09T02:52:36;10.30;;;2.40;;
19312;SDS011;9791;50.820;4.406;2022-09-09T02:55:06;9.85;;;1.85;;
19312;SDS011;9791;50.820;4.406;2022-09-09T02:57:34;5.85;;;1.60;;
19312;SDS011;9791;50.820;4.406;2022-09-09T03:00:00;9.30;;;1.95;;
19312;SDS011;9791;50.820;4.406;2022-09-09T03:02:27;11.68;;;2.08;;
19312;SDS011;9791;50.820;4.406;2022-09-09T03:04:53;10.40;;;1.90;;
19312;SDS011;9791;50.820;4.406;2022-09-09T03:07:19;6.05;;;1.65;;
19312;SDS011;9791;50.820;4.406;2022-09-09T03:09:45;7.65;;;1.70;;
19312;SDS011;9791;50.820;4.406;2022-09-09T03:12:11;7.60;;;1.90;;
19312;SDS011;9791;50.820;4.406;2022-09-09T03:14:38;8.88;;;1.90;;
19312;SDS011;9791;50.820;4.406;2022-09-09T03:17:04;11.48;;;2.15;;
19312;SDS011;9791;50.820;4.406;2022-09-09T03:19:30;10.77;;;1.95;;
19312;SDS011;9791;50.820;4.406;2022-09-09T03:21:57;6.30;;;1.90;;
19312;SDS011;9791;50.820;4.406;2022-09-09T03:24:23;8.98;;;2.00;;
19312;SDS011;9791;50.820;4.406;2022-09-09T03:26:49;6.35;;;2.05;;
19312;SDS011;9791;50.820;4.406;2022-09-09T03:29:15;12.32;;;2.45;;
19312;SDS011;9791;50.820;4.406;2022-09-09T03:31:43;8.15;;;2.00;;
19312;SDS011;9791;50.820;4.406;2022-09-09T03:34:09;11.95;;;2.33;;
19312;SDS011;9791;50.820;4.406;2022-09-09T03:36:35;10.02;;;2.40;;
19312;SDS011;9791;50.820;4.406;2022-09-09T03:39:01;7.25;;;2.22;;
19312;SDS011;9791;50.820;4.406;2022-09-09T03:41:28;13.73;;;1.98;;
19312;SDS011;9791;50.820;4.406;2022-09-09T03:43:54;10.82;;;2.70;;
19312;SDS011;9791;50.820;4.406;2022-09-09T03:46:21;6.85;;;2.03;;
19312;SDS011;9791;50.820;4.406;2022-09-09T03:48:47;8.93;;;1.98;;
19312;SDS011;9791;50.820;4.406;2022-09-09T03:51:13;11.00;;;2.05;;
19312;SDS011;9791;50.820;4.406;2022-09-09T03:53:40;8.02;;;2.22;;
19312;SDS011;9791;50.820;4.406;2022-09-09T03:56:07;10.40;;;2.00;;
19312;SDS011;9791;50.820;4.406;2022-09-09T03:58:34;8.77;;;2.08;;
19312;SDS011;9791;50.820;4.406;2022-09-09T04:01:01;10.50;;;2.15;;
19312;SDS011;9791;50.820;4.406;2022-09-09T04:03:28;11.77;;;3.03;;
19312;SDS011;9791;50.820;4.406;2022-09-09T04:05:54;6.85;;;2.03;;
19312;SDS011;9791;50.820;4.406;2022-09-09T04:08:21;6.80;;;1.88;;
19312;SDS011;9791;50.820;4.406;2022-09-09T04:10:49;8.43;;;1.90;;
19312;SDS011;9791;50.820;4.406;2022-09-09T04:13:16;9.27;;;1.90;;
19312;SDS011;9791;50.820;4.406;2022-09-09T04:15:43;16.08;;;2.85;;
19312;SDS011;9791;50.820;4.406;2022-09-09T04:18:10;14.50;;;2.83;;
19312;SDS011;9791;50.820;4.406;2022-09-09T04:20:36;7.53;;;2.08;;
19312;SDS011;9791;50.820;4.406;2022-09-09T04:23:03;13.68;;;2.50;;
19312;SDS011;9791;50.820;4.406;2022-09-09T04:25:30;9.85;;;2.45;;
19312;SDS011;9791;50.820;4.406;2022-09-09T04:27:56;9.73;;;1.90;;
19312;SDS011;9791;50.820;4.406;2022-09-09T04:30:23;7.97;;;1.90;;
19312;SDS011;9791;50.820;4.406;2022-09-09T04:32:49;14.63;;;2.63;;
19312;SDS011;9791;50.820;4.406;2022-09-09T04:35:15;7.97;;;2.20;;
19312;SDS011;9791;50.820;4.406;2022-09-09T04:37:41;10.63;;;2.30;;
19312;SDS011;9791;50.820;4.406;2022-09-09T04:40:08;7.18;;;2.00;;
19312;SDS011;9791;50.820;4.406;2022-09-09T04:42:37;10.40;;;2.28;;
19312;SDS011;9791;50.820;4.406;2022-09-09T04:45:04;10.00;;;2.20;;
19312;SDS011;9791;50.820;4.406;2022-09-09T04:47:30;13.68;;;2.40;;
19312;SDS011;9791;50.820;4.406;2022-09-09T04:49:56;10.82;;;3.03;;
19312;SDS011;9791;50.820;4.406;2022-09-09T04:52:22;9.05;;;2.05;;
19312;SDS011;9791;50.820;4.406;2022-09-09T04:54:48;14.20;;;2.85;;
19312;SDS011;9791;50.820;4.406;2022-09-09T04:57:14;13.05;;;2.53;;
19312;SDS011;9791;50.820;4.406;2022-09-09T04:59:40;9.18;;;2.35;;
19312;SDS011;9791;50.820;4.406;2022-09-09T05:02:06;11.98;;;2.70;;
19312;SDS011;9791;50.820;4.406;2022-09-09T05:04:32;7.40;;;2.22;;
19312;SDS011;9791;50.820;4.406;2022-09-09T05:06:58;10.75;;;2.50;;
19312;SDS011;9791;50.820;4.406;2022-09-09T05:09:24;10.85;;;3.03;;
19312;SDS011;9791;50.820;4.406;2022-09-09T05:11:50;8.55;;;2.40;;
19312;SDS011;9791;50.820;4.406;2022-09-09T05:14:17;10.10;;;2.42;;
19312;SDS011;9791;50.820;4.406;2022-09-09T05:16:46;10.45;;;2.72;;
19312;SDS011;9791;50.820;4.406;2022-09-09T05:19:12;11.82;;;2.53;;
19312;SDS011;9791;50.820;4.406;2022-09-09T05:21:38;12.00;;;2.35;;
19312;SDS011;9791;50.820;4.406;2022-09-09T05:24:04;10.68;;;2.25;;
19312;SDS011;9791;50.820;4.406;2022-09-09T05:26:30;10.30;;;2.85;;
19312;SDS011;9791;50.820;4.406;2022-09-09T05:28:57;16.02;;;3.45;;
19312;SDS011;9791;50.820;4.406;2022-09-09T05:31:25;11.60;;;2.83;;
19312;SDS011;9791;50.820;4.406;2022-09-09T05:33:53;10.43;;;2.88;;
19312;SDS011;9791;50.820;4.406;2022-09-09T05:36:20;12.93;;;2.53;;
19312;SDS011;9791;50.820;4.406;2022-09-09T05:38:46;11.82;;;2.50;;
19312;SDS011;9791;50.820;4.406;2022-09-09T05:41:13;12.70;;;2.47;;
19312;SDS011;9791;50.820;4.406;2022-09-09T05:43:40;7.03;;;2.20;;
19312;SDS011;9791;50.820;4.406;2022-09-09T05:46:27;8.65;;;1.90;;
19312;SDS011;9791;50.820;4.406;2022-09-09T05:48:53;7.43;;;2.58;;
19312;SDS011;9791;50.820;4.406;2022-09-09T05:51:23;12.73;;;2.47;;
19312;SDS011;9791;50.820;4.406;2022-09-09T05:53:49;16.40;;;2.92;;
19312;SDS011;9791;50.820;4.406;2022-09-09T05:56:17;8.07;;;2.47;;
19312;SDS011;9791;50.820;4.406;2022-09-09T05:58:43;8.07;;;2.17;;
19312;SDS011;9791;50.820;4.406;2022-09-09T06:01:18;10.95;;;2.42;;
19312;SDS011;9791;50.820;4.406;2022-09-09T06:03:45;11.50;;;2.40;;
19312;SDS011;9791;50.820;4.406;2022-09-09T06:06:16;11.00;;;2.40;;
19312;SDS011;9791;50.820;4.406;2022-09-09T06:08:43;15.68;;;2.88;;
19312;SDS011;9791;50.820;4.406;2022-09-09T06:11:17;10.63;;;2.17;;
19312;SDS011;9791;50.820;4.406;2022-09-09T06:13:43;13.77;;;2.47;;
19312;SDS011;9791;50.820;4.406;2022-09-09T06:16:11;13.88;;;2.35;;
19312;SDS011;9791;50.820;4.406;2022-09-09T06:18:38;13.38;;;2.45;;
19312;SDS011;9791;50.820;4.406;2022-09-09T06:21:05;7.78;;;1.92;;
19312;SDS011;9791;50.820;4.406;2022-09-09T06:23:31;9.55;;;2.25;;
19312;SDS011;9791;50.820;4.406;2022-09-09T06:26:14;10.70;;;2.50;;
19312;SDS011;9791;50.820;4.406;2022-09-09T06:28:43;13.70;;;1.95;;
19312;SDS011;9791;50.820;4.406;2022-09-09T06:31:10;9.07;;;2.15;;
19312;SDS011;9791;50.820;4.406;2022-09-09T06:33:37;10.07;;;1.95;;
19312;SDS011;9791;50.820;4.406;2022-09-09T06:36:16;11.35;;;2.15;;
19312;SDS011;9791;50.820;4.406;2022-09-09T06:38:43;9.15;;;2.25;;
19312;SDS011;9791;50.820;4.406;2022-09-09T06:41:09;8.13;;;1.60;;
19312;SDS011;9791;50.820;4.406;2022-09-09T06:43:35;6.53;;;1.80;;
19312;SDS011;9791;50.820;4.406;2022-09-09T06:46:06;13.50;;;2.92;;
19312;SDS011;9791;50.820;4.406;2022-09-09T06:48:33;10.98;;;2.15;;
19312;SDS011;9791;50.820;4.406;2022-09-09T06:53:40;9.27;;;1.63;;
19312;SDS011;9791;50.820;4.406;2022-09-09T06:58:39;7.18;;;1.67;;
19312;SDS011;9791;50.820;4.406;2022-09-09T07:01:10;8.60;;;1.90;;
19312;SDS011;9791;50.820;4.406;2022-09-09T07:03:37;9.25;;;2.40;;
19312;SDS011;9791;50.820;4.406;2022-09-09T07:06:03;13.35;;;2.05;;
19312;SDS011;9791;50.820;4.406;2022-09-09T07:08:29;8.82;;;2.30;;
19312;SDS011;9791;50.820;4.406;2022-09-09T07:11:01;10.35;;;2.17;;
19312;SDS011;9791;50.820;4.406;2022-09-09T07:13:29;11.18;;;2.28;;
19312;SDS011;9791;50.820;4.406;2022-09-09T07:16:02;9.10;;;1.83;;
19312;SDS011;9791;50.820;4.406;2022-09-09T07:18:28;10.88;;;2.15;;
19312;SDS011;9791;50.820;4.406;2022-09-09T07:20:55;12.52;;;2.17;;
19312;SDS011;9791;50.820;4.406;2022-09-09T07:23:22;7.20;;;1.83;;
19312;SDS011;9791;50.820;4.406;2022-09-09T07:25:48;7.68;;;2.13;;
19312;SDS011;9791;50.820;4.406;2022-09-09T07:28:15;10.45;;;2.95;;
19312;SDS011;9791;50.820;4.406;2022-09-09T07:30:41;9.48;;;2.22;;
19312;SDS011;9791;50.820;4.406;2022-09-09T07:33:08;11.30;;;2.25;;
19312;SDS011;9791;50.820;4.406;2022-09-09T07:35:37;7.50;;;1.90;;
19312;SDS011;9791;50.820;4.406;2022-09-09T07:38:03;9.40;;;2.05;;
19312;SDS011;9791;50.820;4.406;2022-09-09T07:40:32;9.88;;;2.30;;
19312;SDS011;9791;50.820;4.406;2022-09-09T07:42:58;8.77;;;1.77;;
19312;SDS011;9791;50.820;4.406;2022-09-09T07:45:24;7.15;;;2.00;;
19312;SDS011;9791;50.820;4.406;2022-09-09T07:47:53;13.50;;;1.98;;
19312;SDS011;9791;50.820;4.406;2022-09-09T07:50:19;8.70;;;2.08;;
19312;SDS011;9791;50.820;4.406;2022-09-09T07:52:44;10.70;;;2.78;;
19312;SDS011;9791;50.820;4.406;2022-09-09T07:55:10;12.50;;;2.55;;
19312;SDS011;9791;50.820;4.406;2022-09-09T07:57:37;7.53;;;2.15;;
19312;SDS011;9791;50.820;4.406;2022-09-09T08:00:03;11.88;;;2.13;;
19312;SDS011;9791;50.820;4.406;2022-09-09T08:02:29;9.55;;;2.58;;
19312;SDS011;9791;50.820;4.406;2022-09-09T08:04:56;15.75;;;2.58;;
19312;SDS011;9791;50.820;4.406;2022-09-09T08:07:22;8.13;;;1.83;;
19312;SDS011;9791;50.820;4.406;2022-09-09T08:09:48;12.85;;;2.85;;
19312;SDS011;9791;50.820;4.406;2022-09-09T08:12:14;7.82;;;2.00;;
19312;SDS011;9791;50.820;4.406;2022-09-09T08:14:41;13.15;;;3.08;;
19312;SDS011;9791;50.820;4.406;2022-09-09T08:17:07;14.68;;;2.67;;
19312;SDS011;9791;50.820;4.406;2022-09-09T08:19:33;15.98;;;2.78;;
19312;SDS011;9791;50.820;4.406;2022-09-09T08:22:00;11.07;;;1.77;;
19312;SDS011;9791;50.820;4.406;2022-09-09T08:24:27;8.13;;;1.90;;
19312;SDS011;9791;50.820;4.406;2022-09-09T08:26:53;9.80;;;2.30;;
19312;SDS011;9791;50.820;4.406;2022-09-09T08:29:21;9.13;;;2.03;;
19312;SDS011;9791;50.820;4.406;2022-09-09T08:31:49;10.52;;;2.33;;
19312;SDS011;9791;50.820;4.406;2022-09-09T08:34:15;12.50;;;2.92;;
19312;SDS011;9791;50.820;4.406;2022-09-09T08:36:43;9.68;;;2.08;;
19312;SDS011;9791;50.820;4.406;2022-09-09T08:39:10;10.20;;;2.05;;
19312;SDS011;9791;50.820;4.406;2022-09-09T08:46:56;6.63;;;1.50;;
19312;SDS011;9791;50.820;4.406;2022-09-09T08:49:30;10.93;;;2.13;;
19312;SDS011;9791;50.820;4.406;2022-09-09T08:51:59;8.63;;;2.13;;
19312;SDS011;9791;50.820;4.406;2022-09-09T08:54:26;11.15;;;1.70;;
19312;SDS011;9791;50.820;4.406;2022-09-09T08:56:57;8.80;;;2.38;;
19312;SDS011;9791;50.820;4.406;2022-09-09T08:59:23;8.85;;;2.15;;
19312;SDS011;9791;50.820;4.406;2022-09-09T09:01:58;6.05;;;1.73;;
19312;SDS011;9791;50.820;4.406;2022-09-09T09:07:11;6.95;;;1.67;;
19312;SDS011;9791;50.820;4.406;2022-09-09T09:09:52;10.50;;;2.08;;
19312;SDS011;9791;50.820;4.406;2022-09-09T09:12:24;9.75;;;1.90;;
19312;SDS011;9791;50.820;4.406;2022-09-09T09:14:50;12.77;;;2.40;;
19312;SDS011;9791;50.820;4.406;2022-09-09T09:17:17;7.53;;;1.70;;
19312;SDS011;9791;50.820;4.406;2022-09-09T09:19:44;8.93;;;2.13;;
19312;SDS011;9791;50.820;4.406;2022-09-09T09:27:38;11.65;;;2.45;;
19312;SDS011;9791;50.820;4.406;2022-09-09T09:30:15;7.72;;;1.92;;
19312;SDS011;9791;50.820;4.406;2022-09-09T09:32:44;7.65;;;2.65;;
19312;SDS011;9791;50.820;4.406;2022-09-09T09:35:14;12.82;;;2.70;;
19312;SDS011;9791;50.820;4.406;2022-09-09T09:37:41;10.43;;;2.10;;
19312;SDS011;9791;50.820;4.406;2022-09-09T09:40:14;8.63;;;1.92;;
19312;SDS011;9791;50.820;4.406;2022-09-09T09:42:48;6.88;;;1.80;;
19312;SDS011;9791;50.820;4.406;2022-09-09T09:45:17;7.90;;;2.50;;
19312;SDS011;9791;50.820;4.406;2022-09-09T09:47:46;14.60;;;2.85;;
19312;SDS011;9791;50.820;4.406;2022-09-09T09:50:23;8.77;;;2.13;;
19312;SDS011;9791;50.820;4.406;2022-09-09T09:52:59;8.27;;;2.13;;
19312;SDS011;9791;50.820;4.406;2022-09-09T09:55:26;9.73;;;2.38;;
19312;SDS011;9791;50.820;4.406;2022-09-09T09:57:54;8.73;;;2.20;;
19312;SDS011;9791;50.820;4.406;2022-09-09T10:00:26;8.30;;;2.20;;
19312;SDS011;9791;50.820;4.406;2022-09-09T10:02:51;11.48;;;2.38;;
19312;SDS011;9791;50.820;4.406;2022-09-09T10:05:22;6.63;;;2.03;;
19312;SDS011;9791;50.820;4.406;2022-09-09T10:13:25;6.35;;;1.92;;
19312;SDS011;9791;50.820;4.406;2022-09-09T10:16:03;10.15;;;2.40;;
19312;SDS011;9791;50.820;4.406;2022-09-09T10:21:17;6.75;;;1.95;;
19312;SDS011;9791;50.820;4.406;2022-09-09T10:31:18;8.13;;;1.85;;
19312;SDS011;9791;50.820;4.406;2022-09-09T10:33:55;7.07;;;1.60;;
19312;SDS011;9791;50.820;4.406;2022-09-09T10:36:24;8.88;;;1.73;;
19312;SDS011;9791;50.820;4.406;2022-09-09T10:38:58;8.10;;;2.30;;
19312;SDS011;9791;50.820;4.406;2022-09-09T10:41:31;8.65;;;1.98;;
19312;SDS011;9791;50.820;4.406;2022-09-09T10:52:15;8.50;;;2.22;;
19312;SDS011;9791;50.820;4.406;2022-09-09T10:57:25;5.80;;;1.77;;
19312;SDS011;9791;50.820;4.406;2022-09-09T10:59:54;9.18;;;2.13;;
19312;SDS011;9791;50.820;4.406;2022-09-09T11:07:15;7.05;;;2.03;;
19312;SDS011;9791;50.820;4.406;2022-09-09T11:09:48;6.45;;;1.48;;
19312;SDS011;9791;50.820;4.406;2022-09-09T11:12:17;4.93;;;1.38;;
19312;SDS011;9791;50.820;4.406;2022-09-09T11:14:55;14.55;;;2.50;;
19312;SDS011;9791;50.820;4.406;2022-09-09T11:17:24;9.32;;;1.55;;
19312;SDS011;9791;50.820;4.406;2022-09-09T11:19:52;7.70;;;2.25;;
19312;SDS011;9791;50.820;4.406;2022-09-09T11:27:26;5.95;;;1.95;;
19312;SDS011;9791;50.820;4.406;2022-09-09T11:40:25;13.35;;;1.90;;
19312;SDS011;9791;50.820;4.406;2022-09-09T11:43:02;8.30;;;1.60;;
19312;SDS011;9791;50.820;4.406;2022-09-09T11:45:30;6.45;;;1.48;;
19312;SDS011;9791;50.820;4.406;2022-09-09T11:47:58;7.22;;;1.80;;
19312;SDS011;9791;50.820;4.406;2022-09-09T11:52:50;8.02;;;1.80;;
19312;SDS011;9791;50.820;4.406;2022-09-09T11:55:25;5.40;;;1.60;;
19312;SDS011;9791;50.820;4.406;2022-09-09T11:58:02;6.22;;;1.85;;
19312;SDS011;9791;50.820;4.406;2022-09-09T12:00:36;6.80;;;2.08;;
19312;SDS011;9791;50.820;4.406;2022-09-09T12:03:03;5.25;;;1.50;;
19312;SDS011;9791;50.820;4.406;2022-09-09T12:05:39;7.05;;;1.70;;
19312;SDS011;9791;50.820;4.406;2022-09-09T12:08:07;6.70;;;1.42;;
19312;SDS011;9791;50.820;4.406;2022-09-09T12:10:36;6.80;;;1.73;;
19312;SDS011;9791;50.820;4.406;2022-09-09T12:13:07;7.07;;;1.30;;
19312;SDS011;9791;50.820;4.406;2022-09-09T12:15:34;4.93;;;1.40;;
19312;SDS011;9791;50.820;4.406;2022-09-09T12:18:00;7.38;;;1.58;;
19312;SDS011;9791;50.820;4.406;2022-09-09T12:28:20;6.03;;;1.50;;
19312;SDS011;9791;50.820;4.406;2022-09-09T12:33:16;5.25;;;1.50;;
19312;SDS011;9791;50.820;4.406;2022-09-09T12:35:43;5.10;;;1.35;;
19312;SDS011;9791;50.820;4.406;2022-09-09T12:38:14;6.75;;;1.40;;
19312;SDS011;9791;50.820;4.406;2022-09-09T12:40:41;6.50;;;1.48;;
19312;SDS011;9791;50.820;4.406;2022-09-09T12:43:20;7.20;;;1.50;;
19312;SDS011;9791;50.820;4.406;2022-09-09T12:45:47;8.88;;;1.52;;
19312;SDS011;9791;50.820;4.406;2022-09-09T12:48:15;8.15;;;1.73;;
19312;SDS011;9791;50.820;4.406;2022-09-09T12:50:48;4.65;;;1.23;;
19312;SDS011;9791;50.820;4.406;2022-09-09T12:55:58;5.45;;;1.40;;
19312;SDS011;9791;50.820;4.406;2022-09-09T12:58:24;9.15;;;1.73;;
19312;SDS011;9791;50.820;4.406;2022-09-09T13:00:54;4.68;;;1.25;;
19312;SDS011;9791;50.820;4.406;2022-09-09T13:03:25;5.25;;;1.23;;
19312;SDS011;9791;50.820;4.406;2022-09-09T13:05:51;4.90;;;1.35;;
19312;SDS011;9791;50.820;4.406;2022-09-09T13:08:18;8.20;;;1.65;;
19312;SDS011;9791;50.820;4.406;2022-09-09T13:10:59;4.93;;;1.35;;
19312;SDS011;9791;50.820;4.406;2022-09-09T13:15:58;5.07;;;1.20;;
19312;SDS011;9791;50.820;4.406;2022-09-09T13:18:32;9.30;;;1.60;;
19312;SDS011;9791;50.820;4.406;2022-09-09T13:20:59;5.47;;;1.45;;
19312;SDS011;9791;50.820;4.406;2022-09-09T13:23:26;12.73;;;1.50;;
19312;SDS011;9791;50.820;4.406;2022-09-09T13:25:57;7.35;;;1.33;;
19312;SDS011;9791;50.820;4.406;2022-09-09T13:28:26;7.07;;;1.83;;
19312;SDS011;9791;50.820;4.406;2022-09-09T13:31:00;5.68;;;1.30;;
19312;SDS011;9791;50.820;4.406;2022-09-09T13:33:44;7.22;;;1.55;;
19312;SDS011;9791;50.820;4.406;2022-09-09T13:36:11;4.43;;;1.25;;
19312;SDS011;9791;50.820;4.406;2022-09-09T13:41:06;5.90;;;1.25;;
19312;SDS011;9791;50.820;4.406;2022-09-09T13:44:05;4.70;;;1.52;;
19312;SDS011;9791;50.820;4.406;2022-09-09T13:48:58;4.25;;;1.02;;
19312;SDS011;9791;50.820;4.406;2022-09-09T13:51:29;3.17;;;0.80;;
19312;SDS011;9791;50.820;4.406;2022-09-09T13:53:56;5.65;;;1.42;;
19312;SDS011;9791;50.820;4.406;2022-09-09T13:56:22;4.75;;;1.13;;
19312;SDS011;9791;50.820;4.406;2022-09-09T13:58:48;4.95;;;0.90;;
19312;SDS011;9791;50.820;4.406;2022-09-09T14:01:14;4.85;;;1.00;;
19312;SDS011;9791;50.820;4.406;2022-09-09T14:03:40;3.40;;;1.08;;
19312;SDS011;9791;50.820;4.406;2022-09-09T14:06:07;3.63;;;0.98;;
19312;SDS011;9791;50.820;4.406;2022-09-09T14:08:33;5.75;;;1.27;;
19312;SDS011;9791;50.820;4.406;2022-09-09T14:11:02;6.22;;;1.52;;
19312;SDS011;9791;50.820;4.406;2022-09-09T14:13:28;3.78;;;1.13;;
19312;SDS011;9791;50.820;4.406;2022-09-09T14:15:54;4.78;;;1.27;;
19312;SDS011;9791;50.820;4.406;2022-09-09T14:18:22;5.35;;;1.30;;
19312;SDS011;9791;50.820;4.406;2022-09-09T14:20:50;4.95;;;1.30;;
19312;SDS011;9791;50.820;4.406;2022-09-09T14:23:16;6.13;;;1.65;;
19312;SDS011;9791;50.820;4.406;2022-09-09T14:25:43;3.55;;;1.20;;
19312;SDS011;9791;50.820;4.406;2022-09-09T14:28:11;5.20;;;1.27;;
19312;SDS011;9791;50.820;4.406;2022-09-09T14:30:38;6.63;;;1.65;;
19312;SDS011;9791;50.820;4.406;2022-09-09T14:33:05;8.07;;;1.40;;
19312;SDS011;9791;50.820;4.406;2022-09-09T14:35:31;8.18;;;1.40;;
19312;SDS011;9791;50.820;4.406;2022-09-09T14:37:58;6.55;;;1.55;;
19312;SDS011;9791;50.820;4.406;2022-09-09T14:40:25;5.70;;;1.20;;
19312;SDS011;9791;50.820;4.406;2022-09-09T14:42:52;5.72;;;1.20;;
19312;SDS011;9791;50.820;4.406;2022-09-09T14:45:18;4.20;;;1.10;;
19312;SDS011;9791;50.820;4.406;2022-09-09T14:47:46;6.15;;;1.40;;
19312;SDS011;9791;50.820;4.406;2022-09-09T14:50:12;6.85;;;1.20;;
19312;SDS011;9791;50.820;4.406;2022-09-09T14:52:38;2.97;;;1.10;;
19312;SDS011;9791;50.820;4.406;2022-09-09T14:55:05;6.45;;;1.10;;
19312;SDS011;9791;50.820;4.406;2022-09-09T14:57:32;6.53;;;1.42;;
19312;SDS011;9791;50.820;4.406;2022-09-09T14:59:59;4.70;;;1.20;;
19312;SDS011;9791;50.820;4.406;2022-09-09T15:02:25;5.88;;;1.15;;
19312;SDS011;9791;50.820;4.406;2022-09-09T15:04:52;8.40;;;1.40;;
19312;SDS011;9791;50.820;4.406;2022-09-09T15:07:22;5.18;;;1.25;;
19312;SDS011;9791;50.820;4.406;2022-09-09T15:09:48;4.70;;;1.33;;
19312;SDS011;9791;50.820;4.406;2022-09-09T15:12:14;4.60;;;1.13;;
19312;SDS011;9791;50.820;4.406;2022-09-09T15:14:40;3.70;;;1.05;;
19312;SDS011;9791;50.820;4.406;2022-09-09T15:17:07;7.75;;;1.33;;
19312;SDS011;9791;50.820;4.406;2022-09-09T15:19:33;6.32;;;1.42;;
19312;SDS011;9791;50.820;4.406;2022-09-09T15:21:59;8.25;;;1.52;;
19312;SDS011;9791;50.820;4.406;2022-09-09T15:24:25;5.43;;;1.40;;
19312;SDS011;9791;50.820;4.406;2022-09-09T15:26:51;6.20;;;1.25;;
19312;SDS011;9791;50.820;4.406;2022-09-09T15:29:18;8.10;;;1.45;;
19312;SDS011;9791;50.820;4.406;2022-09-09T15:31:44;5.80;;;1.60;;
19312;SDS011;9791;50.820;4.406;2022-09-09T15:34:11;5.70;;;1.25;;
19312;SDS011;9791;50.820;4.406;2022-09-09T15:36:39;5.43;;;1.55;;
19312;SDS011;9791;50.820;4.406;2022-09-09T15:39:07;6.38;;;1.85;;
19312;SDS011;9791;50.820;4.406;2022-09-09T15:41:34;7.75;;;1.65;;
19312;SDS011;9791;50.820;4.406;2022-09-09T15:44:02;6.90;;;1.55;;
19312;SDS011;9791;50.820;4.406;2022-09-09T15:48:58;5.95;;;1.50;;
19312;SDS011;9791;50.820;4.406;2022-09-09T15:51:26;6.40;;;1.52;;
19312;SDS011;9791;50.820;4.406;2022-09-09T15:53:56;5.95;;;1.35;;
19312;SDS011;9791;50.820;4.406;2022-09-09T15:56:23;7.03;;;1.52;;
19312;SDS011;9791;50.820;4.406;2022-09-09T15:58:49;5.78;;;1.20;;
19312;SDS011;9791;50.820;4.406;2022-09-09T16:01:17;6.18;;;1.10;;
19312;SDS011;9791;50.820;4.406;2022-09-09T16:03:44;5.57;;;1.23;;
19312;SDS011;9791;50.820;4.406;2022-09-09T16:06:12;6.93;;;1.45;;
19312;SDS011;9791;50.820;4.406;2022-09-09T16:08:39;5.20;;;1.30;;
19312;SDS011;9791;50.820;4.406;2022-09-09T16:11:10;2.95;;;1.05;;
19312;SDS011;9791;50.820;4.406;2022-09-09T16:13:37;5.85;;;1.42;;
19312;SDS011;9791;50.820;4.406;2022-09-09T16:16:04;8.15;;;1.58;;
19312;SDS011;9791;50.820;4.406;2022-09-09T16:18:37;4.88;;;1.27;;
19312;SDS011;9791;50.820;4.406;2022-09-09T16:21:04;5.90;;;1.55;;
19312;SDS011;9791;50.820;4.406;2022-09-09T16:23:36;4.30;;;1.40;;
19312;SDS011;9791;50.820;4.406;2022-09-09T16:26:03;5.10;;;1.70;;
19312;SDS011;9791;50.820;4.406;2022-09-09T16:28:30;8.15;;;1.83;;
19312;SDS011;9791;50.820;4.406;2022-09-09T16:30:56;6.30;;;1.77;;
19312;SDS011;9791;50.820;4.406;2022-09-09T16:33:23;5.28;;;1.35;;
19312;SDS011;9791;50.820;4.406;2022-09-09T16:35:51;6.60;;;1.48;;
19312;SDS011;9791;50.820;4.406;2022-09-09T16:38:18;6.13;;;1.17;;
19312;SDS011;9791;50.820;4.406;2022-09-09T16:40:45;4.68;;;1.30;;
19312;SDS011;9791;50.820;4.406;2022-09-09T16:43:15;4.22;;;1.27;;
19312;SDS011;9791;50.820;4.406;2022-09-09T16:45:44;5.35;;;1.52;;
19312;SDS011;9791;50.820;4.406;2022-09-09T16:48:10;4.05;;;1.30;;
19312;SDS011;9791;50.820;4.406;2022-09-09T16:50:37;3.55;;;1.20;;
19312;SDS011;9791;50.820;4.406;2022-09-09T16:53:04;6.03;;;1.65;;
19312;SDS011;9791;50.820;4.406;2022-09-09T16:55:37;4.65;;;1.15;;
19312;SDS011;9791;50.820;4.406;2022-09-09T16:58:03;4.15;;;1.42;;
19312;SDS011;9791;50.820;4.406;2022-09-09T17:00:29;6.20;;;1.38;;
19312;SDS011;9791;50.820;4.406;2022-09-09T17:02:55;3.70;;;1.17;;
19312;SDS011;9791;50.820;4.406;2022-09-09T17:05:21;5.03;;;1.33;;
19312;SDS011;9791;50.820;4.406;2022-09-09T17:07:48;6.05;;;1.58;;
19312;SDS011;9791;50.820;4.406;2022-09-09T17:10:14;2.92;;;1.20;;